sensor_id;sensor_type;location;lat;lon;timestamp;P1;durP1;ratioP1;P2;durP2;ratioP2
60851;SDS011;48553;50.766;2.900;2022-11-20T00:00:21;54.00;;;19.20;;
60851;SDS011;48553;50.766;2.900;2022-11-20T00:03:21;57.10;;;21.45;;
60851;SDS011;48553;50.766;2.900;2022-11-20T00:06:23;53.75;;;20.23;;
60851;SDS011;48553;50.766;2.900;2022-11-20T00:09:24;54.53;;;20.58;;
60851;SDS011;48553;50.766;2.900;2022-11-20T00:12:25;62.10;;;21.60;;
60851;SDS011;48553;50.766;2.900;2022-11-20T00:15:25;55.53;;;20.98;;
60851;SDS011;48553;50.766;2.900;2022-11-20T00:18:26;61.40;;;22.63;;
60851;SDS011;48553;50.766;2.900;2022-11-20T00:21:27;59.63;;;22.80;;
60851;SDS011;48553;50.766;2.900;2022-11-20T00:24:28;65.28;;;22.58;;
60851;SDS011;48553;50.766;2.900;2022-11-20T00:27:29;68.20;;;22.67;;
60851;SDS011;48553;50.766;2.900;2022-11-20T00:30:29;63.33;;;22.40;;
60851;SDS011;48553;50.766;2.900;2022-11-20T00:33:30;63.90;;;22.45;;
60851;SDS011;48553;50.766;2.900;2022-11-20T00:36:32;67.93;;;23.70;;
60851;SDS011;48553;50.766;2.900;2022-11-20T00:39:34;71.10;;;24.20;;
60851;SDS011;48553;50.766;2.900;2022-11-20T00:42:34;70.35;;;24.38;;
60851;SDS011;48553;50.766;2.900;2022-11-20T00:45:34;70.45;;;25.02;;
60851;SDS011;48553;50.766;2.900;2022-11-20T00:48:35;73.78;;;24.77;;
60851;SDS011;48553;50.766;2.900;2022-11-20T00:51:35;69.75;;;24.20;;
60851;SDS011;48553;50.766;2.900;2022-11-20T00:54:36;74.43;;;25.27;;
60851;SDS011;48553;50.766;2.900;2022-11-20T00:57:36;74.72;;;25.00;;
60851;SDS011;48553;50.766;2.900;2022-11-20T01:00:38;76.88;;;25.10;;
60851;SDS011;48553;50.766;2.900;2022-11-20T01:03:39;72.28;;;24.50;;
60851;SDS011;48553;50.766;2.900;2022-11-20T01:06:41;70.10;;;23.80;;
60851;SDS011;48553;50.766;2.900;2022-11-20T01:09:41;72.35;;;24.77;;
60851;SDS011;48553;50.766;2.900;2022-11-20T01:12:42;72.97;;;26.10;;
60851;SDS011;48553;50.766;2.900;2022-11-20T01:15:42;68.78;;;24.10;;
60851;SDS011;48553;50.766;2.900;2022-11-20T01:18:44;72.85;;;24.90;;
60851;SDS011;48553;50.766;2.900;2022-11-20T01:21:48;74.22;;;23.98;;
60851;SDS011;48553;50.766;2.900;2022-11-20T01:24:50;71.68;;;24.45;;
60851;SDS011;48553;50.766;2.900;2022-11-20T01:27:50;73.85;;;24.10;;
60851;SDS011;48553;50.766;2.900;2022-11-20T01:30:51;71.13;;;24.67;;
60851;SDS011;48553;50.766;2.900;2022-11-20T01:33:52;70.20;;;24.17;;
60851;SDS011;48553;50.766;2.900;2022-11-20T01:36:54;66.68;;;23.52;;
60851;SDS011;48553;50.766;2.900;2022-11-20T01:39:54;75.47;;;23.35;;
60851;SDS011;48553;50.766;2.900;2022-11-20T01:42:59;69.85;;;23.80;;
60851;SDS011;48553;50.766;2.900;2022-11-20T01:46:21;62.58;;;22.58;;
60851;SDS011;48553;50.766;2.900;2022-11-20T01:49:27;75.10;;;24.35;;
60851;SDS011;48553;50.766;2.900;2022-11-20T01:56:09;69.55;;;23.42;;
60851;SDS011;48553;50.766;2.900;2022-11-20T01:59:12;76.38;;;24.15;;
60851;SDS011;48553;50.766;2.900;2022-11-20T02:02:15;64.57;;;22.33;;
60851;SDS011;48553;50.766;2.900;2022-11-20T02:05:32;64.75;;;22.17;;
60851;SDS011;48553;50.766;2.900;2022-11-20T02:08:38;67.45;;;22.65;;
60851;SDS011;48553;50.766;2.900;2022-11-20T02:11:39;64.65;;;22.52;;
60851;SDS011;48553;50.766;2.900;2022-11-20T02:14:39;61.92;;;21.35;;
60851;SDS011;48553;50.766;2.900;2022-11-20T02:17:40;63.50;;;22.48;;
60851;SDS011;48553;50.766;2.900;2022-11-20T02:20:42;61.40;;;20.95;;
60851;SDS011;48553;50.766;2.900;2022-11-20T02:23:56;62.50;;;23.02;;
60851;SDS011;48553;50.766;2.900;2022-11-20T02:27:14;65.07;;;21.90;;
60851;SDS011;48553;50.766;2.900;2022-11-20T02:30:16;60.55;;;21.67;;
60851;SDS011;48553;50.766;2.900;2022-11-20T02:33:17;60.45;;;21.92;;
60851;SDS011;48553;50.766;2.900;2022-11-20T02:36:18;63.10;;;20.40;;
60851;SDS011;48553;50.766;2.900;2022-11-20T02:39:18;60.67;;;21.60;;
60851;SDS011;48553;50.766;2.900;2022-11-20T02:42:20;63.80;;;21.73;;
60851;SDS011;48553;50.766;2.900;2022-11-20T02:45:21;60.90;;;20.67;;
60851;SDS011;48553;50.766;2.900;2022-11-20T02:48:22;59.63;;;20.88;;
60851;SDS011;48553;50.766;2.900;2022-11-20T02:51:23;63.33;;;19.88;;
60851;SDS011;48553;50.766;2.900;2022-11-20T02:54:23;57.35;;;20.95;;
60851;SDS011;48553;50.766;2.900;2022-11-20T02:57:24;53.45;;;19.10;;
60851;SDS011;48553;50.766;2.900;2022-11-20T03:00:25;56.40;;;19.70;;
60851;SDS011;48553;50.766;2.900;2022-11-20T03:03:25;52.28;;;18.33;;
60851;SDS011;48553;50.766;2.900;2022-11-20T03:06:25;54.00;;;19.20;;
60851;SDS011;48553;50.766;2.900;2022-11-20T03:09:26;49.03;;;18.95;;
60851;SDS011;48553;50.766;2.900;2022-11-20T03:12:26;47.92;;;18.02;;
60851;SDS011;48553;50.766;2.900;2022-11-20T03:15:27;48.35;;;17.90;;
60851;SDS011;48553;50.766;2.900;2022-11-20T03:18:28;48.42;;;17.20;;
60851;SDS011;48553;50.766;2.900;2022-11-20T03:21:29;48.72;;;17.58;;
60851;SDS011;48553;50.766;2.900;2022-11-20T03:24:29;46.55;;;16.98;;
60851;SDS011;48553;50.766;2.900;2022-11-20T03:27:33;45.63;;;17.55;;
60851;SDS011;48553;50.766;2.900;2022-11-20T03:30:34;47.13;;;17.15;;
60851;SDS011;48553;50.766;2.900;2022-11-20T03:33:35;45.42;;;16.48;;
60851;SDS011;48553;50.766;2.900;2022-11-20T03:36:39;51.67;;;17.55;;
60851;SDS011;48553;50.766;2.900;2022-11-20T03:39:40;41.22;;;16.60;;
60851;SDS011;48553;50.766;2.900;2022-11-20T03:42:41;45.38;;;16.48;;
60851;SDS011;48553;50.766;2.900;2022-11-20T03:45:47;49.40;;;17.08;;
60851;SDS011;48553;50.766;2.900;2022-11-20T03:48:47;47.67;;;17.42;;
60851;SDS011;48553;50.766;2.900;2022-11-20T03:51:48;47.55;;;17.35;;
60851;SDS011;48553;50.766;2.900;2022-11-20T03:54:49;51.25;;;18.13;;
60851;SDS011;48553;50.766;2.900;2022-11-20T03:57:49;54.58;;;18.23;;
60851;SDS011;48553;50.766;2.900;2022-11-20T04:00:49;51.00;;;17.92;;
60851;SDS011;48553;50.766;2.900;2022-11-20T04:03:51;45.53;;;17.25;;
60851;SDS011;48553;50.766;2.900;2022-11-20T04:06:52;43.17;;;16.50;;
60851;SDS011;48553;50.766;2.900;2022-11-20T04:09:53;48.78;;;17.00;;
60851;SDS011;48553;50.766;2.900;2022-11-20T04:12:53;43.10;;;16.60;;
60851;SDS011;48553;50.766;2.900;2022-11-20T04:15:56;41.28;;;15.73;;
60851;SDS011;48553;50.766;2.900;2022-11-20T04:18:58;37.60;;;15.80;;
60851;SDS011;48553;50.766;2.900;2022-11-20T04:22:00;47.70;;;16.75;;
60851;SDS011;48553;50.766;2.900;2022-11-20T04:25:00;39.97;;;15.30;;
60851;SDS011;48553;50.766;2.900;2022-11-20T04:28:00;39.72;;;15.30;;
60851;SDS011;48553;50.766;2.900;2022-11-20T04:31:05;41.63;;;14.77;;
60851;SDS011;48553;50.766;2.900;2022-11-20T04:34:13;37.08;;;14.30;;
60851;SDS011;48553;50.766;2.900;2022-11-20T04:37:14;38.00;;;14.77;;
60851;SDS011;48553;50.766;2.900;2022-11-20T04:40:14;34.13;;;13.93;;
60851;SDS011;48553;50.766;2.900;2022-11-20T04:43:15;34.05;;;14.35;;
60851;SDS011;48553;50.766;2.900;2022-11-20T04:46:17;35.85;;;14.48;;
60851;SDS011;48553;50.766;2.900;2022-11-20T04:49:19;37.22;;;15.02;;
60851;SDS011;48553;50.766;2.900;2022-11-20T04:52:19;33.10;;;14.27;;
60851;SDS011;48553;50.766;2.900;2022-11-20T04:55:20;36.78;;;13.85;;
60851;SDS011;48553;50.766;2.900;2022-11-20T04:58:20;39.95;;;14.50;;
60851;SDS011;48553;50.766;2.900;2022-11-20T05:01:22;33.17;;;14.10;;
60851;SDS011;48553;50.766;2.900;2022-11-20T05:04:24;34.33;;;14.18;;
60851;SDS011;48553;50.766;2.900;2022-11-20T05:07:24;32.97;;;13.82;;
60851;SDS011;48553;50.766;2.900;2022-11-20T05:10:25;38.63;;;14.70;;
60851;SDS011;48553;50.766;2.900;2022-11-20T05:13:26;38.78;;;14.32;;
60851;SDS011;48553;50.766;2.900;2022-11-20T05:16:26;36.22;;;14.13;;
60851;SDS011;48553;50.766;2.900;2022-11-20T05:19:27;33.42;;;13.75;;
60851;SDS011;48553;50.766;2.900;2022-11-20T05:22:27;35.13;;;14.38;;
60851;SDS011;48553;50.766;2.900;2022-11-20T05:25:28;35.60;;;13.57;;
60851;SDS011;48553;50.766;2.900;2022-11-20T05:28:28;35.63;;;14.10;;
60851;SDS011;48553;50.766;2.900;2022-11-20T05:31:29;35.35;;;14.73;;
60851;SDS011;48553;50.766;2.900;2022-11-20T05:34:31;35.67;;;13.82;;
60851;SDS011;48553;50.766;2.900;2022-11-20T05:37:31;34.75;;;13.57;;
60851;SDS011;48553;50.766;2.900;2022-11-20T05:40:32;34.40;;;14.35;;
60851;SDS011;48553;50.766;2.900;2022-11-20T05:43:36;36.97;;;14.13;;
60851;SDS011;48553;50.766;2.900;2022-11-20T05:46:37;33.95;;;13.68;;
60851;SDS011;48553;50.766;2.900;2022-11-20T05:49:38;36.45;;;14.20;;
60851;SDS011;48553;50.766;2.900;2022-11-20T05:52:38;34.42;;;14.10;;
60851;SDS011;48553;50.766;2.900;2022-11-20T05:55:38;30.50;;;13.70;;
60851;SDS011;48553;50.766;2.900;2022-11-20T05:58:39;30.67;;;12.75;;
60851;SDS011;48553;50.766;2.900;2022-11-20T06:01:40;34.00;;;14.18;;
60851;SDS011;48553;50.766;2.900;2022-11-20T06:04:40;31.95;;;13.57;;
60851;SDS011;48553;50.766;2.900;2022-11-20T06:07:40;30.67;;;12.82;;
60851;SDS011;48553;50.766;2.900;2022-11-20T06:10:41;31.63;;;13.20;;
60851;SDS011;48553;50.766;2.900;2022-11-20T06:13:41;30.70;;;12.80;;
60851;SDS011;48553;50.766;2.900;2022-11-20T06:16:42;30.33;;;12.65;;
60851;SDS011;48553;50.766;2.900;2022-11-20T06:19:42;32.70;;;13.68;;
60851;SDS011;48553;50.766;2.900;2022-11-20T06:22:43;30.10;;;12.88;;
60851;SDS011;48553;50.766;2.900;2022-11-20T06:25:43;33.17;;;13.00;;
60851;SDS011;48553;50.766;2.900;2022-11-20T06:28:43;28.67;;;13.05;;
60851;SDS011;48553;50.766;2.900;2022-11-20T06:31:44;31.42;;;13.25;;
60851;SDS011;48553;50.766;2.900;2022-11-20T06:34:45;28.33;;;12.70;;
60851;SDS011;48553;50.766;2.900;2022-11-20T06:37:45;31.15;;;13.00;;
60851;SDS011;48553;50.766;2.900;2022-11-20T06:40:45;30.95;;;14.00;;
60851;SDS011;48553;50.766;2.900;2022-11-20T06:43:46;29.90;;;12.90;;
60851;SDS011;48553;50.766;2.900;2022-11-20T06:46:46;28.92;;;12.35;;
60851;SDS011;48553;50.766;2.900;2022-11-20T06:49:47;32.28;;;13.77;;
60851;SDS011;48553;50.766;2.900;2022-11-20T06:52:47;30.50;;;12.77;;
60851;SDS011;48553;50.766;2.900;2022-11-20T06:55:48;32.13;;;13.43;;
60851;SDS011;48553;50.766;2.900;2022-11-20T06:58:49;29.10;;;12.18;;
60851;SDS011;48553;50.766;2.900;2022-11-20T07:01:49;29.58;;;12.35;;
60851;SDS011;48553;50.766;2.900;2022-11-20T07:04:50;27.33;;;12.07;;
60851;SDS011;48553;50.766;2.900;2022-11-20T07:07:50;27.65;;;11.95;;
60851;SDS011;48553;50.766;2.900;2022-11-20T07:10:50;28.60;;;11.75;;
60851;SDS011;48553;50.766;2.900;2022-11-20T07:13:51;34.22;;;12.82;;
60851;SDS011;48553;50.766;2.900;2022-11-20T07:16:51;28.65;;;12.25;;
60851;SDS011;48553;50.766;2.900;2022-11-20T07:19:52;30.35;;;12.00;;
60851;SDS011;48553;50.766;2.900;2022-11-20T07:22:53;29.55;;;12.25;;
60851;SDS011;48553;50.766;2.900;2022-11-20T07:25:57;31.20;;;12.45;;
60851;SDS011;48553;50.766;2.900;2022-11-20T07:29:02;29.35;;;12.07;;
60851;SDS011;48553;50.766;2.900;2022-11-20T07:32:02;29.40;;;11.10;;
60851;SDS011;48553;50.766;2.900;2022-11-20T07:35:04;27.60;;;11.30;;
60851;SDS011;48553;50.766;2.900;2022-11-20T07:38:11;27.33;;;10.80;;
60851;SDS011;48553;50.766;2.900;2022-11-20T07:41:11;28.55;;;11.15;;
60851;SDS011;48553;50.766;2.900;2022-11-20T07:44:12;28.73;;;11.48;;
60851;SDS011;48553;50.766;2.900;2022-11-20T07:47:12;25.42;;;11.20;;
60851;SDS011;48553;50.766;2.900;2022-11-20T07:50:13;27.45;;;10.88;;
60851;SDS011;48553;50.766;2.900;2022-11-20T07:53:14;26.10;;;11.05;;
60851;SDS011;48553;50.766;2.900;2022-11-20T07:56:20;27.05;;;10.55;;
60851;SDS011;48553;50.766;2.900;2022-11-20T07:59:20;26.60;;;10.55;;
60851;SDS011;48553;50.766;2.900;2022-11-20T08:02:21;22.73;;;10.20;;
60851;SDS011;48553;50.766;2.900;2022-11-20T08:05:21;26.95;;;10.13;;
60851;SDS011;48553;50.766;2.900;2022-11-20T08:08:22;22.65;;;9.18;;
60851;SDS011;48553;50.766;2.900;2022-11-20T08:11:22;23.25;;;9.20;;
60851;SDS011;48553;50.766;2.900;2022-11-20T08:14:42;21.63;;;9.15;;
60851;SDS011;48553;50.766;2.900;2022-11-20T08:17:42;21.50;;;8.77;;
60851;SDS011;48553;50.766;2.900;2022-11-20T08:20:43;19.60;;;7.95;;
60851;SDS011;48553;50.766;2.900;2022-11-20T08:23:44;20.52;;;8.18;;
60851;SDS011;48553;50.766;2.900;2022-11-20T08:26:44;19.33;;;8.25;;
60851;SDS011;48553;50.766;2.900;2022-11-20T08:29:45;18.20;;;8.30;;
60851;SDS011;48553;50.766;2.900;2022-11-20T08:32:45;17.27;;;6.90;;
60851;SDS011;48553;50.766;2.900;2022-11-20T08:35:46;18.30;;;7.45;;
60851;SDS011;48553;50.766;2.900;2022-11-20T08:38:47;17.58;;;6.55;;
60851;SDS011;48553;50.766;2.900;2022-11-20T08:41:48;15.70;;;6.40;;
60851;SDS011;48553;50.766;2.900;2022-11-20T08:44:48;12.82;;;5.35;;
60851;SDS011;48553;50.766;2.900;2022-11-20T08:47:49;11.35;;;5.00;;
60851;SDS011;48553;50.766;2.900;2022-11-20T08:50:49;9.38;;;4.63;;
60851;SDS011;48553;50.766;2.900;2022-11-20T08:53:50;12.10;;;4.82;;
60851;SDS011;48553;50.766;2.900;2022-11-20T08:56:50;10.25;;;4.65;;
60851;SDS011;48553;50.766;2.900;2022-11-20T08:59:51;11.80;;;4.43;;
60851;SDS011;48553;50.766;2.900;2022-11-20T09:02:51;10.18;;;3.88;;
60851;SDS011;48553;50.766;2.900;2022-11-20T09:05:56;9.18;;;3.92;;
60851;SDS011;48553;50.766;2.900;2022-11-20T09:08:58;9.77;;;3.70;;
60851;SDS011;48553;50.766;2.900;2022-11-20T09:11:58;7.03;;;3.22;;
60851;SDS011;48553;50.766;2.900;2022-11-20T09:14:59;6.50;;;3.20;;
60851;SDS011;48553;50.766;2.900;2022-11-20T09:18:02;8.23;;;3.15;;
60851;SDS011;48553;50.766;2.900;2022-11-20T09:21:05;8.13;;;3.20;;
60851;SDS011;48553;50.766;2.900;2022-11-20T09:24:10;9.63;;;3.08;;
60851;SDS011;48553;50.766;2.900;2022-11-20T09:27:11;8.63;;;2.83;;
60851;SDS011;48553;50.766;2.900;2022-11-20T09:30:12;6.07;;;2.88;;
60851;SDS011;48553;50.766;2.900;2022-11-20T09:33:15;8.43;;;2.53;;
60851;SDS011;48553;50.766;2.900;2022-11-20T09:36:15;8.43;;;2.90;;
60851;SDS011;48553;50.766;2.900;2022-11-20T09:39:18;8.65;;;2.75;;
60851;SDS011;48553;50.766;2.900;2022-11-20T09:55:54;5.65;;;2.10;;
60851;SDS011;48553;50.766;2.900;2022-11-20T09:58:57;7.40;;;2.17;;
60851;SDS011;48553;50.766;2.900;2022-11-20T10:02:03;5.32;;;2.30;;
60851;SDS011;48553;50.766;2.900;2022-11-20T10:05:18;8.52;;;2.30;;
60851;SDS011;48553;50.766;2.900;2022-11-20T10:08:24;6.32;;;2.03;;
60851;SDS011;48553;50.766;2.900;2022-11-20T10:18:09;6.57;;;2.28;;
60851;SDS011;48553;50.766;2.900;2022-11-20T10:31:01;7.05;;;2.25;;
60851;SDS011;48553;50.766;2.900;2022-11-20T10:37:26;7.10;;;2.30;;
60851;SDS011;48553;50.766;2.900;2022-11-20T10:40:34;5.50;;;2.20;;
60851;SDS011;48553;50.766;2.900;2022-11-20T10:43:38;7.30;;;2.10;;
60851;SDS011;48553;50.766;2.900;2022-11-20T10:50:21;4.47;;;1.92;;
60851;SDS011;48553;50.766;2.900;2022-11-20T11:02:49;5.30;;;2.17;;
60851;SDS011;48553;50.766;2.900;2022-11-20T11:05:53;4.32;;;1.92;;
60851;SDS011;48553;50.766;2.900;2022-11-20T11:09:01;6.20;;;2.08;;
60851;SDS011;48553;50.766;2.900;2022-11-20T11:12:09;4.32;;;2.20;;
60851;SDS011;48553;50.766;2.900;2022-11-20T11:15:11;4.30;;;2.05;;
60851;SDS011;48553;50.766;2.900;2022-11-20T11:18:25;3.92;;;2.10;;
60851;SDS011;48553;50.766;2.900;2022-11-20T11:24:30;6.37;;;2.13;;
60851;SDS011;48553;50.766;2.900;2022-11-20T11:27:31;5.85;;;1.98;;
60851;SDS011;48553;50.766;2.900;2022-11-20T11:30:41;5.97;;;2.03;;
60851;SDS011;48553;50.766;2.900;2022-11-20T11:33:43;5.45;;;1.98;;
60851;SDS011;48553;50.766;2.900;2022-11-20T11:36:56;4.18;;;1.95;;
60851;SDS011;48553;50.766;2.900;2022-11-20T11:39:58;6.32;;;2.05;;
60851;SDS011;48553;50.766;2.900;2022-11-20T11:42:59;5.75;;;2.30;;
60851;SDS011;48553;50.766;2.900;2022-11-20T11:49:22;4.85;;;1.80;;
60851;SDS011;48553;50.766;2.900;2022-11-20T11:52:23;4.45;;;1.80;;
60851;SDS011;48553;50.766;2.900;2022-11-20T11:55:43;5.68;;;1.98;;
60851;SDS011;48553;50.766;2.900;2022-11-20T11:58:48;6.32;;;1.88;;
60851;SDS011;48553;50.766;2.900;2022-11-20T12:01:53;5.22;;;1.63;;
60851;SDS011;48553;50.766;2.900;2022-11-20T12:05:01;3.63;;;1.92;;
60851;SDS011;48553;50.766;2.900;2022-11-20T12:08:18;4.15;;;1.90;;
60851;SDS011;48553;50.766;2.900;2022-11-20T12:14:48;3.20;;;1.63;;
60851;SDS011;48553;50.766;2.900;2022-11-20T12:17:53;5.47;;;1.63;;
60851;SDS011;48553;50.766;2.900;2022-11-20T12:24:32;3.35;;;1.63;;
60851;SDS011;48553;50.766;2.900;2022-11-20T12:34:24;3.58;;;1.70;;
60851;SDS011;48553;50.766;2.900;2022-11-20T12:40:55;6.00;;;2.20;;
60851;SDS011;48553;50.766;2.900;2022-11-20T12:57:52;3.78;;;1.80;;
60851;SDS011;48553;50.766;2.900;2022-11-20T13:08:03;5.15;;;1.83;;
60851;SDS011;48553;50.766;2.900;2022-11-20T13:11:18;4.65;;;1.60;;
60851;SDS011;48553;50.766;2.900;2022-11-20T13:18:14;3.55;;;1.30;;
60851;SDS011;48553;50.766;2.900;2022-11-20T13:21:16;3.08;;;1.30;;
60851;SDS011;48553;50.766;2.900;2022-11-20T13:27:26;4.38;;;1.23;;
60851;SDS011;48553;50.766;2.900;2022-11-20T13:30:31;4.00;;;1.50;;
60851;SDS011;48553;50.766;2.900;2022-11-20T13:33:32;4.13;;;1.30;;
60851;SDS011;48553;50.766;2.900;2022-11-20T13:36:35;3.55;;;1.15;;
60851;SDS011;48553;50.766;2.900;2022-11-20T13:39:36;4.07;;;1.00;;
60851;SDS011;48553;50.766;2.900;2022-11-20T13:42:43;4.80;;;1.08;;
60851;SDS011;48553;50.766;2.900;2022-11-20T13:45:54;2.58;;;1.10;;
60851;SDS011;48553;50.766;2.900;2022-11-20T13:48:56;2.63;;;0.90;;
60851;SDS011;48553;50.766;2.900;2022-11-20T13:52:05;4.93;;;0.95;;
60851;SDS011;48553;50.766;2.900;2022-11-20T13:55:42;4.10;;;1.00;;
60851;SDS011;48553;50.766;2.900;2022-11-20T13:59:13;6.35;;;1.23;;
60851;SDS011;48553;50.766;2.900;2022-11-20T14:02:28;6.60;;;1.23;;
60851;SDS011;48553;50.766;2.900;2022-11-20T14:05:30;5.93;;;1.30;;
60851;SDS011;48553;50.766;2.900;2022-11-20T14:11:46;5.82;;;1.23;;
60851;SDS011;48553;50.766;2.900;2022-11-20T14:14:49;7.05;;;1.38;;
60851;SDS011;48553;50.766;2.900;2022-11-20T14:17:51;7.22;;;1.55;;
60851;SDS011;48553;50.766;2.900;2022-11-20T14:20:52;8.27;;;1.63;;
60851;SDS011;48553;50.766;2.900;2022-11-20T14:23:53;5.10;;;1.30;;
60851;SDS011;48553;50.766;2.900;2022-11-20T14:27:03;6.85;;;1.80;;
60851;SDS011;48553;50.766;2.900;2022-11-20T14:30:04;4.82;;;1.15;;
60851;SDS011;48553;50.766;2.900;2022-11-20T14:33:05;6.82;;;1.38;;
60851;SDS011;48553;50.766;2.900;2022-11-20T14:36:05;8.60;;;1.60;;
60851;SDS011;48553;50.766;2.900;2022-11-20T14:39:07;7.25;;;1.80;;
60851;SDS011;48553;50.766;2.900;2022-11-20T14:42:18;9.27;;;1.50;;
60851;SDS011;48553;50.766;2.900;2022-11-20T14:45:25;10.05;;;1.52;;
60851;SDS011;48553;50.766;2.900;2022-11-20T14:48:40;11.07;;;1.58;;
60851;SDS011;48553;50.766;2.900;2022-11-20T14:51:41;7.97;;;1.55;;
60851;SDS011;48553;50.766;2.900;2022-11-20T14:54:49;9.20;;;2.00;;
60851;SDS011;48553;50.766;2.900;2022-11-20T14:57:57;9.43;;;1.88;;
60851;SDS011;48553;50.766;2.900;2022-11-20T15:01:04;9.07;;;1.45;;
60851;SDS011;48553;50.766;2.900;2022-11-20T15:07:09;9.65;;;1.50;;
60851;SDS011;48553;50.766;2.900;2022-11-20T15:10:11;10.00;;;1.70;;
60851;SDS011;48553;50.766;2.900;2022-11-20T15:13:33;9.13;;;1.58;;
60851;SDS011;48553;50.766;2.900;2022-11-20T15:16:36;15.02;;;2.15;;
60851;SDS011;48553;50.766;2.900;2022-11-20T15:19:37;11.98;;;1.65;;
60851;SDS011;48553;50.766;2.900;2022-11-20T15:22:37;10.40;;;1.80;;
60851;SDS011;48553;50.766;2.900;2022-11-20T15:25:38;7.70;;;1.45;;
60851;SDS011;48553;50.766;2.900;2022-11-20T15:28:40;9.55;;;1.55;;
60851;SDS011;48553;50.766;2.900;2022-11-20T15:31:42;8.27;;;2.10;;
60851;SDS011;48553;50.766;2.900;2022-11-20T15:34:44;9.73;;;1.85;;
60851;SDS011;48553;50.766;2.900;2022-11-20T15:37:45;13.13;;;2.05;;
60851;SDS011;48553;50.766;2.900;2022-11-20T15:40:45;7.25;;;1.73;;
60851;SDS011;48553;50.766;2.900;2022-11-20T15:43:46;8.65;;;1.98;;
60851;SDS011;48553;50.766;2.900;2022-11-20T15:46:46;13.43;;;2.13;;
60851;SDS011;48553;50.766;2.900;2022-11-20T15:49:47;11.05;;;2.00;;
60851;SDS011;48553;50.766;2.900;2022-11-20T15:52:47;7.07;;;2.00;;
60851;SDS011;48553;50.766;2.900;2022-11-20T15:55:48;10.27;;;2.10;;
60851;SDS011;48553;50.766;2.900;2022-11-20T15:58:48;11.98;;;2.30;;
60851;SDS011;48553;50.766;2.900;2022-11-20T16:01:49;10.93;;;2.13;;
60851;SDS011;48553;50.766;2.900;2022-11-20T16:04:49;9.52;;;1.98;;
60851;SDS011;48553;50.766;2.900;2022-11-20T16:07:50;14.77;;;2.20;;
60851;SDS011;48553;50.766;2.900;2022-11-20T16:10:51;11.75;;;2.30;;
60851;SDS011;48553;50.766;2.900;2022-11-20T16:13:51;13.50;;;2.20;;
60851;SDS011;48553;50.766;2.900;2022-11-20T16:17:10;8.20;;;1.80;;
60851;SDS011;48553;50.766;2.900;2022-11-20T16:20:11;10.55;;;2.20;;
60851;SDS011;48553;50.766;2.900;2022-11-20T16:23:12;10.63;;;1.85;;
60851;SDS011;48553;50.766;2.900;2022-11-20T16:26:14;9.52;;;2.17;;
60851;SDS011;48553;50.766;2.900;2022-11-20T16:29:16;6.45;;;2.15;;
60851;SDS011;48553;50.766;2.900;2022-11-20T16:32:17;9.07;;;2.30;;
60851;SDS011;48553;50.766;2.900;2022-11-20T16:35:17;7.93;;;1.95;;
60851;SDS011;48553;50.766;2.900;2022-11-20T16:38:18;7.93;;;1.77;;
60851;SDS011;48553;50.766;2.900;2022-11-20T16:41:18;7.82;;;1.92;;
60851;SDS011;48553;50.766;2.900;2022-11-20T16:44:19;8.82;;;2.22;;
60851;SDS011;48553;50.766;2.900;2022-11-20T16:47:19;7.95;;;2.05;;
60851;SDS011;48553;50.766;2.900;2022-11-20T16:50:20;8.80;;;2.00;;
60851;SDS011;48553;50.766;2.900;2022-11-20T16:53:21;10.10;;;1.90;;
60851;SDS011;48553;50.766;2.900;2022-11-20T16:56:23;9.35;;;1.88;;
60851;SDS011;48553;50.766;2.900;2022-11-20T16:59:25;12.30;;;2.05;;
60851;SDS011;48553;50.766;2.900;2022-11-20T17:02:25;10.55;;;2.15;;
60851;SDS011;48553;50.766;2.900;2022-11-20T17:05:28;14.13;;;2.42;;
60851;SDS011;48553;50.766;2.900;2022-11-20T17:08:29;9.07;;;1.75;;
60851;SDS011;48553;50.766;2.900;2022-11-20T17:11:29;11.75;;;2.10;;
60851;SDS011;48553;50.766;2.900;2022-11-20T17:14:32;9.30;;;2.15;;
60851;SDS011;48553;50.766;2.900;2022-11-20T17:17:33;6.47;;;1.83;;
60851;SDS011;48553;50.766;2.900;2022-11-20T17:20:33;10.85;;;2.28;;
60851;SDS011;48553;50.766;2.900;2022-11-20T17:23:34;8.82;;;2.30;;
60851;SDS011;48553;50.766;2.900;2022-11-20T17:26:37;9.98;;;2.63;;
60851;SDS011;48553;50.766;2.900;2022-11-20T17:29:39;9.88;;;2.80;;
60851;SDS011;48553;50.766;2.900;2022-11-20T17:32:39;11.13;;;2.95;;
60851;SDS011;48553;50.766;2.900;2022-11-20T17:41:59;15.63;;;3.20;;
60851;SDS011;48553;50.766;2.900;2022-11-20T17:45:18;15.98;;;3.08;;
60851;SDS011;48553;50.766;2.900;2022-11-20T17:48:19;10.90;;;3.20;;
60851;SDS011;48553;50.766;2.900;2022-11-20T17:51:21;14.40;;;3.33;;
60851;SDS011;48553;50.766;2.900;2022-11-20T17:54:22;12.88;;;2.90;;
60851;SDS011;48553;50.766;2.900;2022-11-20T17:57:23;11.07;;;2.95;;
60851;SDS011;48553;50.766;2.900;2022-11-20T18:00:42;15.68;;;3.17;;
60851;SDS011;48553;50.766;2.900;2022-11-20T18:03:42;10.60;;;2.97;;
60851;SDS011;48553;50.766;2.900;2022-11-20T18:06:43;13.35;;;3.17;;
60851;SDS011;48553;50.766;2.900;2022-11-20T18:09:43;11.10;;;3.28;;
60851;SDS011;48553;50.766;2.900;2022-11-20T18:12:44;10.38;;;3.20;;
60851;SDS011;48553;50.766;2.900;2022-11-20T18:15:44;12.48;;;2.88;;
60851;SDS011;48553;50.766;2.900;2022-11-20T18:18:45;14.45;;;3.15;;
60851;SDS011;48553;50.766;2.900;2022-11-20T18:21:45;9.00;;;3.00;;
60851;SDS011;48553;50.766;2.900;2022-11-20T18:24:45;13.88;;;2.90;;
60851;SDS011;48553;50.766;2.900;2022-11-20T18:27:46;8.68;;;2.67;;
60851;SDS011;48553;50.766;2.900;2022-11-20T18:30:46;9.18;;;2.47;;
60851;SDS011;48553;50.766;2.900;2022-11-20T18:33:47;9.88;;;2.78;;
60851;SDS011;48553;50.766;2.900;2022-11-20T18:36:47;13.60;;;3.00;;
60851;SDS011;48553;50.766;2.900;2022-11-20T18:39:48;12.45;;;3.20;;
60851;SDS011;48553;50.766;2.900;2022-11-20T18:42:49;11.93;;;3.40;;
60851;SDS011;48553;50.766;2.900;2022-11-20T18:46:08;13.48;;;3.10;;
60851;SDS011;48553;50.766;2.900;2022-11-20T18:49:08;11.43;;;2.88;;
60851;SDS011;48553;50.766;2.900;2022-11-20T18:52:10;14.60;;;3.00;;
60851;SDS011;48553;50.766;2.900;2022-11-20T18:55:11;10.55;;;2.90;;
60851;SDS011;48553;50.766;2.900;2022-11-20T18:58:11;12.52;;;3.22;;
60851;SDS011;48553;50.766;2.900;2022-11-20T19:01:12;11.00;;;2.53;;
60851;SDS011;48553;50.766;2.900;2022-11-20T19:04:13;9.32;;;2.78;;
60851;SDS011;48553;50.766;2.900;2022-11-20T19:07:15;9.48;;;2.60;;
60851;SDS011;48553;50.766;2.900;2022-11-20T19:10:17;9.15;;;2.30;;
60851;SDS011;48553;50.766;2.900;2022-11-20T19:13:19;13.00;;;2.80;;
60851;SDS011;48553;50.766;2.900;2022-11-20T19:16:19;12.88;;;2.67;;
60851;SDS011;48553;50.766;2.900;2022-11-20T19:19:21;10.68;;;2.53;;
60851;SDS011;48553;50.766;2.900;2022-11-20T19:22:22;8.38;;;2.20;;
60851;SDS011;48553;50.766;2.900;2022-11-20T19:25:22;9.38;;;2.40;;
60851;SDS011;48553;50.766;2.900;2022-11-20T19:28:22;7.30;;;1.98;;
60851;SDS011;48553;50.766;2.900;2022-11-20T19:31:24;10.68;;;2.45;;
60851;SDS011;48553;50.766;2.900;2022-11-20T19:34:26;8.70;;;1.95;;
60851;SDS011;48553;50.766;2.900;2022-11-20T19:37:26;9.02;;;2.38;;
60851;SDS011;48553;50.766;2.900;2022-11-20T19:40:27;9.25;;;1.70;;
60851;SDS011;48553;50.766;2.900;2022-11-20T19:43:27;9.10;;;2.05;;
60851;SDS011;48553;50.766;2.900;2022-11-20T19:46:28;6.80;;;1.73;;
60851;SDS011;48553;50.766;2.900;2022-11-20T19:49:30;8.85;;;1.77;;
60851;SDS011;48553;50.766;2.900;2022-11-20T19:52:30;7.88;;;1.80;;
60851;SDS011;48553;50.766;2.900;2022-11-20T19:55:32;7.38;;;1.63;;